Time;durP1;ratioP1;P1;durP2;ratioP2;P2;SDS_P1;SDS_P2;PMS_P1;PMS_P2;Temp;Humidity;BMP_temperature;BMP_pressure;BME280_temperature;BME280_humidity;BME280_pressure;Samples;Min_cycle;Max_cycle;Signal;HPM_P1;HPM_P2
2022/02/14 00:01:55;;;;;;;8.52;5.28;;;;;;;-149.78;100.00;50487.09;5040427;28;20044;-63
2022/02/14 00:04:21;;;;;;;8.77;5.05;;;;;;;-149.78;100.00;50479.28;5038845;28;20026;-63
2022/02/14 00:06:47;;;;;;;7.45;4.47;;;;;;;-149.78;100.00;50516.44;5038987;28;20040;-63
2022/02/14 00:09:14;;;;;;;7.78;4.47;;;;;;;-149.78;100.00;50487.09;5047895;28;20381;-63
2022/02/14 00:11:40;;;;;;;8.05;4.63;;;;;;;-149.78;100.00;50465.56;5037485;28;20043;-63
2022/02/14 00:14:06;;;;;;;9.68;4.60;;;;;;;-149.78;100.00;50463.63;5034454;28;20037;-63
2022/02/14 00:16:32;;;;;;;8.18;4.88;;;;;;;-149.78;100.00;50491.00;5039410;28;20129;-63
2022/02/14 00:18:59;;;;;;;7.35;4.22;;;;;;;-149.78;100.00;50494.91;5034090;28;20045;-63
2022/02/14 00:29:13;;;;;;;12.43;5.05;;;;;;;-149.78;100.00;50498.81;5044512;28;20159;-63
2022/02/14 00:31:39;;;;;;;9.18;5.13;;;;;;;-149.78;100.00;50475.34;5037775;28;20037;-63
2022/02/14 00:34:05;;;;;;;10.27;5.53;;;;;;;-149.78;100.00;50498.81;5041283;28;20090;-63
2022/02/14 00:36:30;;;;;;;11.15;5.82;;;;;;;-149.78;100.00;50481.22;5033827;28;20413;-63
2022/02/14 00:38:56;;;;;;;8.50;5.22;;;;;;;-149.78;100.00;50487.09;5033904;28;20038;-63
2022/02/14 00:41:21;;;;;;;9.57;5.75;;;;;;;-149.78;100.00;50494.91;5033892;28;20037;-63
2022/02/14 01:02:29;;;;;;;15.13;7.95;;;;;;;-149.78;100.00;50508.59;5033849;28;20048;-63
2022/02/14 01:05:32;;;;;;;14.43;8.18;;;;;;;-149.78;100.00;50461.66;5034273;28;20033;-63
2022/02/14 01:07:58;;;;;;;11.88;6.70;;;;;;;-149.78;100.00;50502.75;5041425;28;20090;-63
2022/02/14 01:10:24;;;;;;;13.07;6.90;;;;;;;-149.78;100.00;50498.81;5033351;28;20041;-63
2022/02/14 01:12:50;;;;;;;12.05;7.45;;;;;;;-149.78;100.00;50487.09;5035280;28;20033;-63
2022/02/14 01:15:16;;;;;;;12.63;6.95;;;;;;;-149.78;100.00;50487.09;5039209;28;20484;-63
2022/02/14 01:17:42;;;;;;;14.07;7.40;;;;;;;-149.78;100.00;50506.66;5033107;28;20095;-63
2022/02/14 01:20:20;;;;;;;13.57;7.88;;;;;;;-149.78;100.00;50471.44;5039094;28;20389;-63
2022/02/14 01:22:46;;;;;;;16.23;7.72;;;;;;;-149.78;100.00;50471.44;5041554;28;20081;-63
2022/02/14 01:25:12;;;;;;;15.13;8.43;;;;;;;-149.78;100.00;50498.81;5042977;28;20034;-63
2022/02/14 01:27:39;;;;;;;15.18;8.52;;;;;;;-149.78;100.00;50487.09;5031076;28;20057;-63
2022/02/14 01:30:23;;;;;;;14.20;7.63;;;;;;;-149.78;100.00;50498.81;5032097;28;20041;-63
2022/02/14 01:32:48;;;;;;;11.00;7.05;;;;;;;-149.78;100.00;50475.34;5040975;28;20123;-63
2022/02/14 01:35:14;;;;;;;13.90;7.10;;;;;;;-149.78;100.00;50514.47;5045005;28;20548;-63
2022/02/14 01:37:40;;;;;;;10.95;7.07;;;;;;;-149.78;100.00;50498.81;5042642;28;20052;-63
2022/02/14 01:40:09;;;;;;;15.38;6.88;;;;;;;-149.78;100.00;50520.34;5035442;28;20044;-66
2022/02/14 01:42:35;;;;;;;10.80;6.53;;;;;;;-149.78;100.00;50487.09;5033651;28;20167;-66
2022/02/14 01:45:01;;;;;;;9.90;5.75;;;;;;;-149.78;100.00;50487.09;5033275;28;20076;-66
2022/02/14 01:47:28;;;;;;;8.55;5.40;;;;;;;-149.78;100.00;50510.56;5033105;28;20042;-66
2022/02/14 01:53:42;;;;;;;8.77;5.53;;;;;;;-149.78;100.00;50498.81;5050707;28;20083;-66
2022/02/14 01:56:10;;;;;;;10.00;5.82;;;;;;;-149.78;100.00;50459.72;5040375;28;20128;-66
2022/02/14 01:58:36;;;;;;;9.23;6.00;;;;;;;-149.78;100.00;50510.56;5034568;28;20524;-66
2022/02/14 02:01:02;;;;;;;13.38;5.53;;;;;;;-149.78;100.00;50496.88;5032246;28;20068;-66
2022/02/14 02:03:28;;;;;;;12.77;5.80;;;;;;;-149.78;100.00;50485.13;5037547;28;20449;-66
2022/02/14 02:20:52;;;;;;;11.35;6.68;;;;;;;-149.78;100.00;50491.00;5039103;28;20087;-66
2022/02/14 02:23:18;;;;;;;13.90;7.95;;;;;;;-149.78;100.00;50506.66;5037184;28;20044;-66
2022/02/14 02:25:43;;;;;;;12.88;7.13;;;;;;;-149.78;100.00;50498.81;5044516;28;20043;-66
2022/02/14 02:28:09;;;;;;;11.65;7.07;;;;;;;-149.78;100.00;50475.34;5039702;28;20045;-66
2022/02/14 02:30:35;;;;;;;9.32;5.90;;;;;;;-149.78;100.00;50487.09;5041895;28;20095;-66
2022/02/14 02:36:51;;;;;;;11.55;6.00;;;;;;;-149.78;100.00;50518.38;5041675;28;20063;-63
2022/02/14 02:39:17;;;;;;;3.83;2.40;;;;;;;-149.78;100.00;50498.81;5047020;28;20132;-63
2022/02/14 02:41:43;;;;;;;3.40;2.03;;;;;;;-149.78;100.00;50534.03;5040900;28;20067;-63
2022/02/14 02:44:10;;;;;;;3.70;1.80;;;;;;;-149.78;100.00;50494.91;5041840;28;20061;-63
2022/02/14 02:46:35;;;;;;;3.67;1.65;;;;;;;-149.78;100.00;50504.69;5046558;28;20033;-63
2022/02/14 02:49:21;;;;;;;3.00;1.30;;;;;;;-149.78;100.00;50485.13;5039079;28;20477;-63
2022/02/14 02:51:51;;;;;;;1.52;1.30;;;;;;;-149.78;100.00;50510.56;5049155;28;20040;-63
2022/02/14 02:54:18;;;;;;;4.53;1.48;;;;;;;-149.78;100.00;50485.13;5051201;28;20086;-63
2022/02/14 02:56:47;;;;;;;5.57;1.20;;;;;;;-149.78;100.00;50514.47;5041992;28;20080;-63
2022/02/14 02:59:14;;;;;;;1.67;0.88;;;;;;;-149.78;100.00;50508.59;5040825;28;20046;-63
2022/02/14 03:09:07;;;;;;;2.22;0.98;;;;;;;-149.78;100.00;50492.97;5035119;28;20131;-63
2022/02/14 03:11:34;;;;;;;2.03;1.05;;;;;;;-149.78;100.00;50518.38;5051610;28;20118;-63
2022/02/14 03:14:00;;;;;;;1.65;1.17;;;;;;;-149.78;100.00;50494.91;5042094;28;20030;-63
2022/02/14 03:16:26;;;;;;;2.92;1.30;;;;;;;-149.78;100.00;50510.56;5036370;28;20064;-63
2022/02/14 03:18:52;;;;;;;2.45;1.38;;;;;;;-149.78;100.00;50498.81;5045993;28;20029;-63
2022/02/14 03:22:14;;;;;;;2.35;1.30;;;;;;;-149.78;100.00;50487.09;5043480;28;20098;-63
2022/02/14 03:31:46;;;;;;;3.13;1.30;;;;;;;-149.78;100.00;50506.66;5038375;28;20045;-63
2022/02/14 03:34:12;;;;;;;2.28;1.20;;;;;;;-149.78;100.00;50498.81;5042335;28;20084;-63
2022/02/14 03:36:39;;;;;;;1.90;1.40;;;;;;;-149.78;100.00;50502.75;5047042;28;20036;-63
2022/02/14 03:46:50;;;;;;;3.65;1.55;;;;;;;-149.78;100.00;50483.19;5043170;28;20043;-63
2022/02/14 03:49:16;;;;;;;3.22;1.73;;;;;;;-149.78;100.00;50483.19;5041042;28;20500;-63
2022/02/14 03:59:10;;;;;;;5.50;2.22;;;;;;;-149.78;100.00;50467.53;5036309;28;20837;-62
2022/02/14 04:01:55;;;;;;;10.65;2.42;;;;;;;-149.78;100.00;50475.34;5047979;28;20115;-63
2022/02/14 04:04:39;;;;;;;4.07;2.63;;;;;;;-149.78;100.00;50491.00;5043598;28;20052;-63
2022/02/14 04:07:07;;;;;;;5.82;2.72;;;;;;;-149.78;100.00;50492.97;5043186;28;20043;-63
2022/02/14 04:09:34;;;;;;;4.32;2.50;;;;;;;-149.78;100.00;50510.56;5042936;28;20041;-63
2022/02/14 04:11:59;;;;;;;6.53;3.20;;;;;;;-149.78;100.00;50502.75;5040142;28;20491;-63
2022/02/14 04:14:28;;;;;;;6.57;3.50;;;;;;;-149.78;100.00;50475.34;5046881;28;20373;-62
2022/02/14 04:16:53;;;;;;;5.28;3.25;;;;;;;-149.78;100.00;50506.66;5034435;28;20083;-62
2022/02/14 04:19:20;;;;;;;6.93;3.50;;;;;;;-149.78;100.00;50487.09;5039062;28;20116;-63
2022/02/14 04:21:46;;;;;;;5.40;2.90;;;;;;;-149.78;100.00;50539.91;5042848;28;20044;-63
2022/02/14 04:24:11;;;;;;;4.05;2.70;;;;;;;-149.78;100.00;50522.28;5042784;28;20029;-63
2022/02/14 04:26:37;;;;;;;6.18;2.90;;;;;;;-149.78;100.00;50506.66;5044881;28;20036;-63
2022/02/14 04:29:02;;;;;;;9.70;3.10;;;;;;;-149.78;100.00;50502.75;5045673;28;20099;-63
2022/02/14 04:31:28;;;;;;;7.68;3.40;;;;;;;-149.78;100.00;50487.09;5034677;28;20091;-63
2022/02/14 04:33:53;;;;;;;7.10;2.50;;;;;;;-149.78;100.00;50496.88;5033074;28;20033;-62
2022/02/14 04:36:19;;;;;;;6.10;2.55;;;;;;;-149.78;100.00;50475.34;5039953;28;20037;-62
2022/02/14 04:38:45;;;;;;;10.82;3.35;;;;;;;-149.78;100.00;50514.47;5033616;28;20037;-62
2022/02/14 04:41:11;;;;;;;8.45;3.03;;;;;;;-149.78;100.00;50502.75;5035226;28;20124;-63
2022/02/14 04:43:36;;;;;;;11.80;3.53;;;;;;;-149.78;100.00;50520.34;5035196;28;20033;-62
2022/02/14 04:46:02;;;;;;;4.50;2.85;;;;;;;-149.78;100.00;50518.38;5039890;28;20516;-62
2022/02/14 04:48:28;;;;;;;5.22;2.33;;;;;;;-149.78;100.00;50502.75;5034897;28;20500;-62
2022/02/14 04:50:55;;;;;;;4.25;1.58;;;;;;;-149.78;100.00;50518.38;5051995;28;20041;-63
2022/02/14 04:53:20;;;;;;;2.90;1.70;;;;;;;-149.78;100.00;50526.22;5035396;28;20049;-62
2022/02/14 04:55:46;;;;;;;1.80;1.48;;;;;;;-149.78;100.00;50498.81;5042198;28;20055;-63
2022/02/14 04:58:11;;;;;;;3.80;1.63;;;;;;;-149.78;100.00;50506.66;5042699;28;20041;-62
2022/02/14 05:00:38;;;;;;;5.05;2.25;;;;;;;-149.78;100.00;50487.09;5042632;28;20449;-62
2022/02/14 05:03:04;;;;;;;4.57;2.67;;;;;;;-149.78;100.00;50524.25;5032795;28;20029;-62
2022/02/14 05:05:30;;;;;;;4.13;2.60;;;;;;;-149.78;100.00;50492.97;5032012;28;20492;-62
2022/02/14 05:07:55;;;;;;;7.68;3.15;;;;;;;-149.78;100.00;50545.75;5031673;28;20172;-62
2022/02/14 05:17:52;;;;;;;5.38;3.10;;;;;;;-149.78;100.00;50516.44;5048760;28;20064;-62
2022/02/14 05:20:18;;;;;;;5.47;2.67;;;;;;;-149.78;100.00;50537.94;5039947;28;20115;-63
2022/02/14 05:22:43;;;;;;;6.03;2.80;;;;;;;-149.78;100.00;50494.91;5050686;28;20029;-62
2022/02/14 05:25:09;;;;;;;9.50;2.55;;;;;;;-149.78;100.00;50498.81;5039140;28;20033;-63
2022/02/14 05:27:36;;;;;;;4.32;1.90;;;;;;;-149.78;100.00;50506.66;5035722;28;20108;-63
2022/02/14 05:30:02;;;;;;;3.83;1.50;;;;;;;-149.78;100.00;50506.66;5034014;28;20084;-62
2022/02/14 05:32:28;;;;;;;4.38;1.90;;;;;;;-149.78;100.00;50559.47;5039602;28;20028;-62
2022/02/14 05:34:54;;;;;;;5.13;2.50;;;;;;;-149.78;100.00;50535.97;5039465;28;20037;-62
2022/02/14 05:37:20;;;;;;;6.07;2.00;;;;;;;-149.78;100.00;50512.50;5050753;28;20040;-62
2022/02/14 05:39:47;;;;;;;5.25;1.52;;;;;;;-149.78;100.00;50491.00;5038711;28;20033;-62
2022/02/14 05:42:13;;;;;;;6.28;2.03;;;;;;;-149.78;100.00;50537.94;5050768;28;20067;-62
2022/02/14 05:44:39;;;;;;;7.20;2.40;;;;;;;-149.78;100.00;50512.50;5039627;28;20045;-62
2022/02/14 05:47:05;;;;;;;7.00;3.03;;;;;;;-149.78;100.00;50547.72;5042777;28;20032;-62
2022/02/14 05:49:31;;;;;;;4.80;2.40;;;;;;;-149.78;100.00;50498.81;5050477;28;20128;-62
2022/02/14 05:51:57;;;;;;;6.05;2.47;;;;;;;-149.78;100.00;50545.75;5045023;28;20053;-62
2022/02/14 05:54:23;;;;;;;9.32;3.13;;;;;;;-149.78;100.00;50526.22;5040875;28;20128;-62
2022/02/14 05:56:49;;;;;;;6.00;3.58;;;;;;;-149.78;100.00;50526.22;5051674;28;20111;-63
2022/02/14 05:59:14;;;;;;;6.95;3.33;;;;;;;-149.78;100.00;50526.22;5043655;28;20030;-63
2022/02/14 06:01:40;;;;;;;5.88;2.65;;;;;;;-149.78;100.00;50475.34;5053792;28;20037;-63
2022/02/14 06:04:05;;;;;;;3.95;2.67;;;;;;;-149.78;100.00;50518.38;5052348;28;20056;-63
2022/02/14 06:06:32;;;;;;;4.78;2.60;;;;;;;-149.78;100.00;50510.56;5050023;28;20560;-63
2022/02/14 06:08:58;;;;;;;4.05;2.58;;;;;;;-149.78;100.00;50506.66;5038168;28;20037;-63
2022/02/14 06:11:23;;;;;;;7.20;3.08;;;;;;;-149.78;100.00;50535.97;5043650;28;20461;-63
2022/02/14 06:13:49;;;;;;;6.07;2.08;;;;;;;-149.78;100.00;50506.66;5045710;28;20099;-63
2022/02/14 06:16:15;;;;;;;3.35;2.15;;;;;;;-149.78;100.00;50534.03;5043758;28;20041;-63
2022/02/14 06:18:41;;;;;;;2.15;1.20;;;;;;;-149.78;100.00;50534.03;5046881;28;20033;-63
2022/02/14 06:21:07;;;;;;;2.92;0.90;;;;;;;-149.78;100.00;50534.03;5039192;28;20036;-63
2022/02/14 06:23:33;;;;;;;1.20;0.80;;;;;;;-149.78;100.00;50510.56;5044225;28;20025;-63
2022/02/14 06:26:04;;;;;;;6.38;1.15;;;;;;;-149.78;100.00;50510.56;5040321;28;20038;-63
2022/02/14 06:28:30;;;;;;;2.00;0.85;;;;;;;-149.78;100.00;50514.47;5046074;28;20037;-63
2022/02/14 06:30:55;;;;;;;3.55;0.98;;;;;;;-149.78;100.00;50510.56;5043756;28;20697;-63
2022/02/14 06:33:21;;;;;;;3.95;1.02;;;;;;;-149.78;100.00;50514.47;5043016;28;20477;-63
2022/02/14 06:35:46;;;;;;;6.43;1.23;;;;;;;-149.78;100.00;50510.56;5046501;28;20031;-63
2022/02/14 06:38:12;;;;;;;4.28;1.10;;;;;;;-149.78;100.00;50539.91;5044721;28;20503;-65
2022/02/14 06:40:37;;;;;;;3.30;1.63;;;;;;;-149.78;100.00;50492.97;5040077;28;20472;-65
2022/02/14 06:43:03;;;;;;;3.33;1.60;;;;;;;-149.78;100.00;50514.47;5040771;28;20033;-66
2022/02/14 06:45:29;;;;;;;4.93;2.00;;;;;;;-149.78;100.00;50543.81;5049614;28;20094;-66
2022/02/14 06:47:55;;;;;;;5.30;1.58;;;;;;;-149.78;100.00;50479.28;5045611;28;20796;-65
2022/02/14 06:50:21;;;;;;;3.67;1.50;;;;;;;-149.78;100.00;50498.81;5047093;28;20532;-65
2022/02/14 06:52:46;;;;;;;5.65;2.00;;;;;;;-149.78;100.00;50537.94;5052017;28;20041;-65
2022/02/14 06:55:13;;;;;;;3.45;1.85;;;;;;;-149.78;100.00;50526.22;5044924;28;20065;-66
2022/02/14 06:57:39;;;;;;;6.50;2.22;;;;;;;-149.78;100.00;50502.75;5055247;28;20048;-65
2022/02/14 07:00:08;;;;;;;6.28;2.45;;;;;;;-149.78;100.00;50530.13;5051006;28;20032;-65
2022/02/14 07:02:34;;;;;;;4.78;3.05;;;;;;;-149.78;100.00;50524.25;5037924;28;20420;-66
2022/02/14 07:05:01;;;;;;;6.85;4.22;;;;;;;-149.78;100.00;50524.25;5043559;28;20398;-66
2022/02/14 07:07:26;;;;;;;7.43;4.00;;;;;;;-149.78;100.00;50514.47;5040639;28;20044;-65
2022/02/14 07:09:52;;;;;;;6.65;3.70;;;;;;;-149.78;100.00;50514.47;5036618;28;20033;-65
2022/02/14 07:12:17;;;;;;;8.20;3.90;;;;;;;-149.78;100.00;50518.38;5035749;28;20511;-65
2022/02/14 07:14:44;;;;;;;7.32;3.15;;;;;;;-149.78;100.00;50506.66;5044200;28;20481;-66
2022/02/14 07:17:11;;;;;;;5.88;3.00;;;;;;;-149.78;100.00;50514.47;5040660;28;20124;-66
2022/02/14 07:19:39;;;;;;;11.07;3.40;;;;;;;-149.78;100.00;50526.22;5055513;28;20385;-65
2022/02/14 07:22:06;;;;;;;4.43;3.28;;;;;;;-149.78;100.00;50471.44;5049408;28;20048;-65
2022/02/14 07:24:32;;;;;;;10.30;3.65;;;;;;;-149.78;100.00;50530.13;5046849;28;20033;-65
2022/02/14 07:26:58;;;;;;;3.90;2.20;;;;;;;-149.78;100.00;50537.94;5036473;28;20051;-66
2022/02/14 07:29:24;;;;;;;3.13;1.40;;;;;;;-149.78;100.00;50534.03;5040124;28;20104;-65
2022/02/14 07:31:50;;;;;;;6.88;3.95;;;;;;;-149.78;100.00;50491.00;5047809;28;20186;-65
2022/02/14 07:34:15;;;;;;;4.65;0.80;;;;;;;-149.78;100.00;50510.56;5052795;28;20060;-65
2022/02/14 07:36:41;;;;;;;1.80;0.82;;;;;;;-149.78;100.00;50524.25;5042436;28;20059;-65
2022/02/14 07:39:07;;;;;;;3.35;0.70;;;;;;;-149.78;100.00;50528.16;5038677;28;20400;-65
2022/02/14 07:41:34;;;;;;;2.30;0.85;;;;;;;-149.78;100.00;50526.22;5041152;28;20044;-66
2022/02/14 07:44:00;;;;;;;1.45;0.60;;;;;;;-149.78;100.00;50514.47;5044877;28;20545;-66
2022/02/14 07:46:26;;;;;;;1.95;0.57;;;;;;;-149.78;100.00;50514.47;5040569;28;20487;-65
2022/02/14 07:48:53;;;;;;;0.57;0.57;;;;;;;-149.78;100.00;50545.75;5038764;28;20029;-65
2022/02/14 07:51:19;;;;;;;4.78;0.57;;;;;;;-149.78;100.00;50530.13;5051299;28;20578;-65
2022/02/14 07:53:45;;;;;;;0.40;0.40;;;;;;;-149.78;100.00;50498.81;5032127;28;20136;-65
2022/02/14 07:56:12;;;;;;;0.38;0.35;;;;;;;-149.78;100.00;50510.56;5034406;28;20203;-65
2022/02/14 07:58:39;;;;;;;1.65;0.30;;;;;;;-149.78;100.00;50502.75;5030520;28;20042;-66
2022/02/14 08:01:05;;;;;;;0.22;0.22;;;;;;;-149.78;100.00;50514.47;5030006;28;20021;-65
2022/02/14 08:03:31;;;;;;;0.47;0.40;;;;;;;-149.78;100.00;50534.03;5040787;28;20098;-63
2022/02/14 08:05:58;;;;;;;0.40;0.40;;;;;;;-149.78;100.00;50494.91;5048777;28;20060;-63
2022/02/14 08:08:24;;;;;;;0.73;0.40;;;;;;;-149.78;100.00;50534.03;5038027;28;20429;-66
2022/02/14 08:10:52;;;;;;;1.35;0.40;;;;;;;-149.78;100.00;50518.38;5050617;28;20090;-63
2022/02/14 08:13:17;;;;;;;0.57;0.45;;;;;;;-149.78;100.00;50500.78;5040257;28;20120;-64
2022/02/14 08:15:43;;;;;;;1.13;0.35;;;;;;;-149.78;100.00;50520.34;5039189;28;20055;-66
2022/02/14 08:18:09;;;;;;;1.35;0.40;;;;;;;-149.78;100.00;50514.47;5023604;28;20033;-63
2022/02/14 08:20:36;;;;;;;0.43;0.20;;;;;;;-149.78;100.00;50491.00;5032140;28;20030;-66
2022/02/14 08:23:03;;;;;;;1.95;0.40;;;;;;;-149.78;100.00;50530.13;5039278;28;20030;-66
2022/02/14 08:25:32;;;;;;;0.32;0.32;;;;;;;-149.78;100.00;50537.94;5032882;28;20055;-63
2022/02/14 08:28:04;;;;;;;0.40;0.40;;;;;;;-149.78;100.00;50491.00;5034366;28;20038;-63
2022/02/14 08:30:32;;;;;;;0.40;0.40;;;;;;;-149.78;100.00;50479.28;5031237;28;20049;-63
2022/02/14 08:33:00;;;;;;;1.25;0.60;;;;;;;-149.78;100.00;50510.56;5036172;28;20290;-66
2022/02/14 08:35:25;;;;;;;2.60;0.40;;;;;;;-149.78;100.00;50512.50;5035685;28;20543;-63
2022/02/14 08:37:53;;;;;;;4.70;1.40;;;;;;;-149.78;100.00;50475.34;5038337;28;20057;-67
2022/02/14 08:40:19;;;;;;;0.73;0.30;;;;;;;-149.78;100.00;50487.09;5026674;28;20037;-62
2022/02/14 08:42:46;;;;;;;0.43;0.43;;;;;;;-149.78;100.00;50491.00;5025528;28;20106;-63
2022/02/14 08:45:12;;;;;;;1.17;0.60;;;;;;;-149.78;100.00;50541.84;5002156;28;20037;-67
2022/02/14 08:47:38;;;;;;;0.80;0.50;;;;;;;-149.78;100.00;50475.34;5034539;28;20531;-63
2022/02/14 08:50:04;;;;;;;1.48;0.77;;;;;;;-149.78;100.00;50502.75;5036704;28;20155;-67
2022/02/14 08:52:31;;;;;;;0.70;0.70;;;;;;;-149.78;100.00;50496.88;5032631;28;20771;-66
2022/02/14 08:54:56;;;;;;;1.13;0.70;;;;;;;-149.78;100.00;50491.00;5038121;28;20049;-66
2022/02/14 08:57:23;;;;;;;1.63;0.80;;;;;;;-149.78;100.00;50518.38;5035269;28;20063;-66
2022/02/14 08:59:50;;;;;;;4.93;0.95;;;;;;;-149.78;100.00;50491.00;5038570;28;20636;-66
2022/02/14 09:02:16;;;;;;;1.10;1.00;;;;;;;-149.78;100.00;50541.84;5030479;28;20148;-65
2022/02/14 09:04:42;;;;;;;2.17;1.60;;;;;;;-149.78;100.00;50516.44;5031351;28;20129;-65
2022/02/14 09:07:08;;;;;;;4.57;2.00;;;;;;;-149.78;100.00;50526.22;5034689;28;20052;-66
2022/02/14 09:09:33;;;;;;;3.75;1.98;;;;;;;-149.78;100.00;50506.66;5023237;28;20032;-66
2022/02/14 09:12:02;;;;;;;3.28;1.80;;;;;;;-149.78;100.00;50522.28;5033506;28;20119;-67
2022/02/14 09:14:28;;;;;;;2.58;1.98;;;;;;;-149.78;100.00;50481.22;5033662;28;20124;-64
2022/02/14 09:16:55;;;;;;;4.15;1.85;;;;;;;-149.78;100.00;50534.03;5039895;28;20079;-67
2022/02/14 09:19:20;;;;;;;3.10;2.13;;;;;;;-149.78;100.00;50479.28;5035013;28;20475;-67
2022/02/14 09:21:46;;;;;;;3.92;2.03;;;;;;;-149.78;100.00;50491.00;5040686;28;20064;-67
2022/02/14 09:24:13;;;;;;;4.60;1.92;;;;;;;-149.78;100.00;50502.75;5037021;28;20123;-66
2022/02/14 09:26:43;;;;;;;1.88;1.60;;;;;;;-149.78;100.00;50498.81;5039427;28;20439;-66
2022/02/14 09:29:11;;;;;;;2.85;1.90;;;;;;;-149.78;100.00;50479.28;5034048;28;20045;-66
2022/02/14 09:31:38;;;;;;;3.83;2.45;;;;;;;-149.78;100.00;50545.75;5032269;28;20045;-66
2022/02/14 09:34:04;;;;;;;3.33;2.25;;;;;;;-149.78;100.00;50518.38;5040196;28;20057;-66
2022/02/14 09:36:30;;;;;;;4.25;2.53;;;;;;;-149.78;100.00;50535.97;5039629;28;20469;-67
2022/02/14 09:38:56;;;;;;;2.45;1.90;;;;;;;-149.78;100.00;50491.00;5037307;28;20042;-68
2022/02/14 09:41:21;;;;;;;3.38;1.70;;;;;;;-149.78;100.00;50502.75;5039641;28;20098;-67
2022/02/14 09:43:49;;;;;;;2.17;1.42;;;;;;;-149.78;100.00;50504.69;5039526;28;20045;-68
2022/02/14 09:46:15;;;;;;;3.05;1.20;;;;;;;-149.78;100.00;50522.28;5041374;28;20377;-68
2022/02/14 09:48:44;;;;;;;1.23;0.90;;;;;;;-149.78;100.00;50510.56;5036341;28;20040;-67
2022/02/14 09:51:17;;;;;;;0.88;0.80;;;;;;;-149.78;100.00;50520.34;5037355;28;20065;-67
2022/02/14 09:53:43;;;;;;;1.63;0.63;;;;;;;-149.78;100.00;50532.06;5034561;28;20124;-67
2022/02/14 09:56:12;;;;;;;0.60;0.50;;;;;;;-149.78;100.00;50508.59;5043168;28;20124;-66
2022/02/14 09:58:38;;;;;;;2.20;0.40;;;;;;;-149.78;100.00;50512.50;5043243;28;20033;-66
2022/02/14 10:01:04;;;;;;;0.52;0.50;;;;;;;-149.78;100.00;50510.56;5049380;28;20036;-65
2022/02/14 10:03:29;;;;;;;0.55;0.55;;;;;;;-149.78;100.00;50537.94;5032623;28;20072;-65
2022/02/14 10:05:58;;;;;;;2.22;0.68;;;;;;;-149.78;100.00;50489.03;5041732;28;20120;-65
2022/02/14 10:08:31;;;;;;;1.02;0.60;;;;;;;-149.78;100.00;50506.66;5043211;28;20037;-65
2022/02/14 10:11:18;;;;;;;0.65;0.60;;;;;;;-149.78;100.00;50518.38;5039241;28;20029;-66
2022/02/14 10:13:50;;;;;;;0.35;0.35;;;;;;;-149.78;100.00;50492.97;5039433;28;20502;-65
2022/02/14 10:16:16;;;;;;;1.27;0.63;;;;;;;-149.78;100.00;50514.47;5045686;28;20047;-65
2022/02/14 10:18:42;;;;;;;0.40;0.40;;;;;;;-149.78;100.00;50506.66;5045053;28;20456;-66
2022/02/14 10:21:28;;;;;;;0.70;0.60;;;;;;;-149.78;100.00;50518.38;5039635;28;20057;-67
2022/02/14 10:24:08;;;;;;;3.63;0.38;;;;;;;-149.78;100.00;50526.22;5038109;28;20079;-67
2022/02/14 10:26:39;;;;;;;3.50;0.50;;;;;;;-149.78;100.00;50518.38;5041337;28;20443;-65
2022/02/14 10:29:30;;;;;;;3.97;1.20;;;;;;;-149.78;100.00;50534.03;5044371;28;20060;-65
2022/02/14 10:32:20;;;;;;;0.38;0.30;;;;;;;-149.78;100.00;50545.75;5043754;28;20481;-63
2022/02/14 10:34:52;;;;;;;0.40;0.30;;;;;;;-149.78;100.00;50541.84;5045595;28;20139;-64
2022/02/14 10:37:18;;;;;;;0.47;0.40;;;;;;;-149.78;100.00;50528.16;5046614;28;20428;-64
2022/02/14 10:39:46;;;;;;;0.20;0.20;;;;;;;-149.78;100.00;50514.47;5044742;28;20067;-64
2022/02/14 10:42:14;;;;;;;0.40;0.40;;;;;;;-149.78;100.00;50557.50;5045742;28;20029;-63
2022/02/14 10:47:33;;;;;;;0.30;0.30;;;;;;;-149.78;100.00;50537.94;5044622;28;20507;-68
2022/02/14 10:50:18;;;;;;;0.52;0.35;;;;;;;-149.78;100.00;50514.47;5046474;28;20035;-65
2022/02/14 10:52:52;;;;;;;0.63;0.25;;;;;;;-149.78;100.00;50537.94;5040268;28;20485;-67
2022/02/14 10:55:42;;;;;;;1.08;0.45;;;;;;;-149.78;100.00;50498.81;5040144;28;20116;-65
2022/02/14 10:58:08;;;;;;;0.82;0.40;;;;;;;-149.78;100.00;50561.41;5042426;28;20049;-68
2022/02/14 11:00:36;;;;;;;1.75;0.40;;;;;;;-149.78;100.00;50510.56;5043725;28;20030;-67
2022/02/14 11:03:06;;;;;;;0.60;0.50;;;;;;;-149.78;100.00;50541.84;5048224;28;20036;-66
2022/02/14 11:05:33;;;;;;;2.10;0.60;;;;;;;-149.78;100.00;50520.34;5040447;28;20380;-67
2022/02/14 11:08:00;;;;;;;0.88;0.60;;;;;;;-149.78;100.00;50514.47;5037184;28;20421;-67
2022/02/14 11:10:26;;;;;;;0.70;0.70;;;;;;;-149.78;100.00;50508.59;5037414;28;20048;-67
2022/02/14 11:13:00;;;;;;;1.30;0.80;;;;;;;-149.78;100.00;50526.22;5038266;28;20065;-66
2022/02/14 11:15:28;;;;;;;1.10;0.70;;;;;;;-149.78;100.00;50510.56;5049291;28;20037;-66
2022/02/14 11:17:56;;;;;;;0.60;0.60;;;;;;;-149.78;100.00;50506.66;5035662;28;20037;-67
2022/02/14 11:20:22;;;;;;;4.10;1.10;;;;;;;-149.78;100.00;50526.22;5041066;28;20058;-66
2022/02/14 11:22:50;;;;;;;0.70;0.70;;;;;;;-149.78;100.00;50492.97;5043004;28;20115;-67
2022/02/14 11:25:34;;;;;;;2.38;0.60;;;;;;;-149.78;100.00;50522.28;5038232;28;20020;-64
2022/02/14 11:28:16;;;;;;;1.02;0.82;;;;;;;-149.78;100.00;50514.47;5044214;28;20503;-66
2022/02/14 11:30:46;;;;;;;1.45;0.80;;;;;;;-149.78;100.00;50534.03;5041279;28;20401;-66
2022/02/14 11:33:19;;;;;;;0.50;0.50;;;;;;;-149.78;100.00;50496.88;5036040;28;20048;-66
2022/02/14 11:36:08;;;;;;;1.38;0.68;;;;;;;-149.78;100.00;50518.38;5036510;28;20029;-66
2022/02/14 11:38:45;;;;;;;0.30;0.30;;;;;;;-149.78;100.00;50502.75;5035022;28;20065;-66
2022/02/14 11:41:40;;;;;;;0.55;0.52;;;;;;;-149.78;100.00;50518.38;5034898;28;20056;-66
2022/02/14 11:44:12;;;;;;;0.73;0.45;;;;;;;-149.78;100.00;50522.28;5035980;28;20073;-66
2022/02/14 11:46:43;;;;;;;0.77;0.55;;;;;;;-149.78;100.00;50510.56;5034000;28;20087;-64
2022/02/14 11:49:11;;;;;;;0.45;0.43;;;;;;;-149.78;100.00;50483.19;5041768;28;20036;-64
2022/02/14 11:51:39;;;;;;;0.40;0.40;;;;;;;-149.78;100.00;50510.56;5052300;28;20085;-64
2022/02/14 11:54:07;;;;;;;0.40;0.40;;;;;;;-149.78;100.00;50494.91;5037120;28;20076;-64
2022/02/14 11:56:39;;;;;;;0.52;0.40;;;;;;;-149.78;100.00;50496.88;5048196;28;20025;-64
2022/02/14 11:59:11;;;;;;;0.40;0.40;;;;;;;-149.78;100.00;50512.50;5054907;28;20033;-65
2022/02/14 12:01:45;;;;;;;0.40;0.40;;;;;;;-149.78;100.00;50487.09;5054532;28;20475;-64
2022/02/14 12:04:30;;;;;;;0.43;0.40;;;;;;;-149.78;100.00;50498.81;5054545;28;20028;-64
2022/02/14 12:07:23;;;;;;;2.40;0.50;;;;;;;-149.78;100.00;50487.09;5053315;28;20035;-64
2022/02/14 12:10:00;;;;;;;0.68;0.35;;;;;;;-149.78;100.00;50502.75;5054625;28;20063;-64
2022/02/14 12:12:46;;;;;;;0.40;0.40;;;;;;;-149.78;100.00;50534.03;5054410;28;20064;-64
2022/02/14 12:20:41;;;;;;;0.65;0.30;;;;;;;-149.78;100.00;50526.22;5053865;28;20033;-64
2022/02/14 12:23:07;;;;;;;1.48;0.40;;;;;;;-149.78;100.00;50506.66;5053819;28;20406;-64
2022/02/14 12:25:34;;;;;;;0.63;0.30;;;;;;;-149.78;100.00;50528.16;5053801;28;20041;-64
2022/02/14 12:28:08;;;;;;;0.43;0.35;;;;;;;-149.78;100.00;50512.50;5053689;28;20056;-64
2022/02/14 12:30:33;;;;;;;0.40;0.40;;;;;;;-149.78;100.00;50539.91;5053572;28;20060;-64
2022/02/14 12:32:59;;;;;;;0.40;0.30;;;;;;;-149.78;100.00;50504.69;5053597;28;20033;-64
2022/02/14 12:35:35;;;;;;;0.30;0.30;;;;;;;-149.78;100.00;50502.75;5053634;28;20033;-64
2022/02/14 12:38:02;;;;;;;0.40;0.40;;;;;;;-149.78;100.00;50530.13;5053452;28;20063;-64
2022/02/14 12:40:47;;;;;;;0.50;0.30;;;;;;;-149.78;100.00;50514.47;5053519;28;20041;-64
2022/02/14 12:43:29;;;;;;;0.35;0.30;;;;;;;-149.78;100.00;50524.25;5053791;28;20484;-64
2022/02/14 12:45:59;;;;;;;0.40;0.40;;;;;;;-149.78;100.00;50512.50;5052975;28;20033;-64
2022/02/14 12:48:35;;;;;;;0.82;0.40;;;;;;;-149.78;100.00;50541.84;5053258;28;20029;-64
2022/02/14 12:51:02;;;;;;;0.50;0.45;;;;;;;-149.78;100.00;50518.38;5053197;28;20547;-64